Erie, Kansas
Current Conditions -  °F | °C
As of 5:52 PM on Wednesday 22 Oct 2014 (Local Time) from KCNU Reporting Station
Clear Clear  
Wind Chill: 73°   Ceiling: Unl
Heat Index: 73°   Visibility: 10mi
Dew Point: 58°   Wind: 8mph
Humidity: 59%   Direction: 170°S
Pressure: 30.08"   Gusts: NA
Location:  37.57°N, 95.24°W
Report Text: KCNU 222252Z AUTO 17007KT 10SM CLR 23/14 A3008 RMK AO2 SLP180 T02280144
Loading
Personal Weather Stations






























Interactive Weather Map New forecast layout! Learn more

10-Day Weather Forecast

Advertisements
Track Severe Weather on mobile